Time;durP1;ratioP1;P1;durP2;ratioP2;P2;SDS_P1;SDS_P2;PMS_P1;PMS_P2;Temp;Humidity;BMP_temperature;BMP_pressure;BME280_temperature;BME280_humidity;BME280_pressure;Samples;Min_cycle;Max_cycle;Signal;HPM_P1;HPM_P2
2023/07/06 00:00:19;;;;;;;4.33;4.00;;;;;;;;;;5032235;28;21003;-59
2023/07/06 00:02:45;;;;;;;5.80;4.90;;;;;;;;;;5032603;28;20780;-59
2023/07/06 00:05:13;;;;;;;4.50;4.30;;;;;;;;;;5032519;28;20426;-59
2023/07/06 00:07:42;;;;;;;4.57;4.27;;;;;;;;;;5032556;28;20433;-59
2023/07/06 00:10:08;;;;;;;4.83;4.33;;;;;;;;;;5032407;28;20530;-58
2023/07/06 00:12:34;;;;;;;5.50;5.10;;;;;;;;;;5032468;28;20489;-59
2023/07/06 00:15:00;;;;;;;4.57;4.37;;;;;;;;;;5032541;28;20762;-59
2023/07/06 00:17:26;;;;;;;4.70;4.40;;;;;;;;;;5032413;28;20519;-58
2023/07/06 00:19:52;;;;;;;5.60;4.67;;;;;;;;;;5032367;28;20830;-58
2023/07/06 00:22:18;;;;;;;11.37;4.97;;;;;;;;;;5032349;28;20447;-58
2023/07/06 00:24:46;;;;;;;4.90;4.60;;;;;;;;;;5032286;28;20416;-58
2023/07/06 00:27:15;;;;;;;5.03;4.50;;;;;;;;;;5032331;28;20449;-58
2023/07/06 00:29:56;;;;;;;5.20;4.80;;;;;;;;;;5031490;28;20416;-58
2023/07/06 00:32:28;;;;;;;8.80;4.80;;;;;;;;;;5032091;28;20474;-58
2023/07/06 00:34:58;;;;;;;5.67;4.73;;;;;;;;;;5032138;28;20439;-58
2023/07/06 00:37:24;;;;;;;5.20;4.80;;;;;;;;;;5032408;28;20412;-59
2023/07/06 00:39:51;;;;;;;4.93;4.50;;;;;;;;;;5032138;28;20942;-59
2023/07/06 00:42:19;;;;;;;5.83;5.33;;;;;;;;;;5031792;28;20879;-58
2023/07/06 00:44:52;;;;;;;5.20;4.80;;;;;;;;;;5031913;28;20415;-59
2023/07/06 00:47:23;;;;;;;7.60;5.00;;;;;;;;;;5032308;28;20407;-59
2023/07/06 00:49:54;;;;;;;5.27;4.77;;;;;;;;;;5032017;28;20441;-59
2023/07/06 00:52:22;;;;;;;4.90;4.60;;;;;;;;;;5032128;28;20465;-58
2023/07/06 00:54:49;;;;;;;5.13;4.83;;;;;;;;;;5031788;28;20419;-59
2023/07/06 00:57:19;;;;;;;5.10;4.80;;;;;;;;;;5031793;28;20478;-59
2023/07/06 00:59:46;;;;;;;6.20;4.73;;;;;;;;;;5032038;28;20407;-58
2023/07/06 01:02:15;;;;;;;5.80;5.20;;;;;;;;;;5031688;28;20443;-58
2023/07/06 01:04:41;;;;;;;5.53;5.13;;;;;;;;;;5031775;28;20453;-59
2023/07/06 01:07:07;;;;;;;5.33;4.70;;;;;;;;;;5031577;28;20502;-58
2023/07/06 01:09:33;;;;;;;5.70;4.97;;;;;;;;;;5031743;28;20431;-59
2023/07/06 01:12:02;;;;;;;5.80;4.60;;;;;;;;;;5030361;28;20531;-58
2023/07/06 01:14:28;;;;;;;5.83;5.03;;;;;;;;;;5031524;28;20435;-59
2023/07/06 01:17:14;;;;;;;4.97;4.57;;;;;;;;;;5031628;28;20411;-58
2023/07/06 01:19:58;;;;;;;5.00;4.57;;;;;;;;;;5031694;28;20415;-58
2023/07/06 01:22:47;;;;;;;5.03;4.73;;;;;;;;;;5031630;28;20425;-58
2023/07/06 01:25:32;;;;;;;4.93;4.53;;;;;;;;;;5031662;28;20474;-58
2023/07/06 01:28:16;;;;;;;5.60;4.50;;;;;;;;;;5031652;28;20423;-58
2023/07/06 01:30:44;;;;;;;7.97;5.30;;;;;;;;;;5031620;28;20410;-58
2023/07/06 01:33:12;;;;;;;6.30;4.93;;;;;;;;;;5031353;28;20908;-58
2023/07/06 01:35:57;;;;;;;6.00;4.53;;;;;;;;;;5031998;28;20481;-58
2023/07/06 01:38:23;;;;;;;11.03;5.17;;;;;;;;;;5031766;28;20411;-58
2023/07/06 01:40:49;;;;;;;6.23;5.40;;;;;;;;;;5032255;28;20442;-57
2023/07/06 01:43:16;;;;;;;6.63;4.50;;;;;;;;;;5035078;28;20541;-57
2023/07/06 01:45:46;;;;;;;4.80;4.60;;;;;;;;;;5035471;28;20442;-58
2023/07/06 01:48:13;;;;;;;10.67;5.10;;;;;;;;;;5035011;28;20522;-58
2023/07/06 01:50:49;;;;;;;5.00;4.70;;;;;;;;;;5035217;28;20438;-58
2023/07/06 01:53:34;;;;;;;4.40;4.10;;;;;;;;;;5035355;28;20405;-58
2023/07/06 01:56:09;;;;;;;8.53;5.50;;;;;;;;;;5034913;28;20450;-58
2023/07/06 01:58:39;;;;;;;5.13;4.83;;;;;;;;;;5034895;28;20503;-58
2023/07/06 02:01:08;;;;;;;5.33;4.93;;;;;;;;;;5035054;28;20419;-58
2023/07/06 02:03:36;;;;;;;4.93;4.43;;;;;;;;;;5034870;28;20417;-57
2023/07/06 02:06:03;;;;;;;6.10;4.60;;;;;;;;;;5034668;28;20420;-57
2023/07/06 02:08:29;;;;;;;8.03;4.77;;;;;;;;;;5034682;28;20460;-58
2023/07/06 02:10:56;;;;;;;7.80;5.20;;;;;;;;;;5034603;28;20777;-58
2023/07/06 02:13:22;;;;;;;4.87;4.57;;;;;;;;;;5034550;28;20421;-58
2023/07/06 02:15:48;;;;;;;5.50;5.13;;;;;;;;;;5034724;28;20478;-58
2023/07/06 02:18:14;;;;;;;5.40;5.10;;;;;;;;;;5033262;28;20418;-58
2023/07/06 02:20:42;;;;;;;5.07;4.77;;;;;;;;;;5034647;28;20422;-57
2023/07/06 02:23:11;;;;;;;4.30;4.00;;;;;;;;;;5034604;28;20441;-58
2023/07/06 02:25:39;;;;;;;5.20;4.80;;;;;;;;;;5034654;28;20912;-57
2023/07/06 02:28:08;;;;;;;5.87;5.10;;;;;;;;;;5034332;28;20417;-57
2023/07/06 02:30:34;;;;;;;4.90;4.60;;;;;;;;;;5034219;28;20517;-57
2023/07/06 02:33:00;;;;;;;5.73;5.20;;;;;;;;;;5034154;28;20465;-57
2023/07/06 02:35:26;;;;;;;5.90;5.30;;;;;;;;;;5034116;28;20414;-57
2023/07/06 02:37:52;;;;;;;5.77;5.10;;;;;;;;;;5032822;28;20427;-58
2023/07/06 02:40:19;;;;;;;5.23;4.97;;;;;;;;;;5033965;28;20432;-58
2023/07/06 02:42:45;;;;;;;5.13;4.80;;;;;;;;;;5034283;28;20438;-57
2023/07/06 02:45:11;;;;;;;5.90;5.50;;;;;;;;;;5033974;28;20909;-58
2023/07/06 02:47:39;;;;;;;7.47;5.07;;;;;;;;;;5034078;28;20441;-57
2023/07/06 02:50:10;;;;;;;4.37;4.17;;;;;;;;;;5034509;28;20421;-58
2023/07/06 02:52:36;;;;;;;5.87;5.20;;;;;;;;;;5033058;28;20515;-58
2023/07/06 02:55:03;;;;;;;5.00;4.70;;;;;;;;;;5034154;28;20405;-58
2023/07/06 02:57:29;;;;;;;5.03;4.63;;;;;;;;;;5033642;28;20469;-61
2023/07/06 02:59:56;;;;;;;5.40;4.90;;;;;;;;;;5033762;28;20422;-62
2023/07/06 03:02:22;;;;;;;5.57;5.07;;;;;;;;;;5033408;28;20495;-61
2023/07/06 03:04:53;;;;;;;7.83;4.77;;;;;;;;;;5033742;28;20440;-61
2023/07/06 03:07:23;;;;;;;5.73;5.30;;;;;;;;;;5033920;28;20421;-61
2023/07/06 03:09:51;;;;;;;4.90;4.60;;;;;;;;;;5033410;28;20475;-61
2023/07/06 03:12:17;;;;;;;5.40;5.00;;;;;;;;;;5033309;28;20484;-61
2023/07/06 03:14:46;;;;;;;5.70;5.30;;;;;;;;;;5033498;28;20401;-62
2023/07/06 03:17:12;;;;;;;5.47;4.80;;;;;;;;;;5033371;28;20418;-61
2023/07/06 03:19:38;;;;;;;5.50;4.73;;;;;;;;;;5033354;28;20467;-61
2023/07/06 03:22:04;;;;;;;5.30;4.90;;;;;;;;;;5033391;28;20421;-61
2023/07/06 03:24:33;;;;;;;5.53;5.07;;;;;;;;;;5033272;28;20413;-61
2023/07/06 03:27:00;;;;;;;4.70;4.40;;;;;;;;;;5033136;28;20606;-61
2023/07/06 03:29:26;;;;;;;5.87;5.27;;;;;;;;;;5033304;28;20471;-61
2023/07/06 03:31:53;;;;;;;5.10;4.80;;;;;;;;;;5032924;28;20482;-61
2023/07/06 03:34:22;;;;;;;4.90;4.60;;;;;;;;;;5033210;28;20408;-61
2023/07/06 03:36:51;;;;;;;5.30;4.80;;;;;;;;;;5033012;28;20899;-61
2023/07/06 03:39:17;;;;;;;9.23;4.90;;;;;;;;;;5032945;28;20480;-61
2023/07/06 03:41:43;;;;;;;9.17;4.97;;;;;;;;;;5032927;28;20889;-61
2023/07/06 03:44:10;;;;;;;4.57;4.27;;;;;;;;;;5033346;28;20787;-61
2023/07/06 03:46:38;;;;;;;7.30;5.10;;;;;;;;;;5032799;28;20907;-62
2023/07/06 03:49:08;;;;;;;4.77;4.57;;;;;;;;;;5032814;28;20440;-62
2023/07/06 03:51:34;;;;;;;5.03;4.63;;;;;;;;;;5032724;28;20463;-62
2023/07/06 03:54:06;;;;;;;6.00;5.40;;;;;;;;;;5033083;28;20487;-62
2023/07/06 03:56:32;;;;;;;7.03;4.70;;;;;;;;;;5033132;28;20917;-61
2023/07/06 03:59:01;;;;;;;5.07;4.77;;;;;;;;;;5032686;28;20412;-61
2023/07/06 04:01:31;;;;;;;5.70;4.73;;;;;;;;;;5032639;28;20538;-61
2023/07/06 04:03:57;;;;;;;6.00;5.10;;;;;;;;;;5032192;28;20436;-61
2023/07/06 04:06:27;;;;;;;5.60;5.20;;;;;;;;;;5031979;28;20437;-61
2023/07/06 04:08:56;;;;;;;19.77;15.53;;;;;;;;;;5032322;28;20937;-61
2023/07/06 04:11:22;;;;;;;9.27;7.60;;;;;;;;;;5032297;28;20508;-61
2023/07/06 04:13:57;;;;;;;6.27;5.87;;;;;;;;;;5032324;28;20414;-61
2023/07/06 04:16:23;;;;;;;9.10;5.87;;;;;;;;;;5032609;28;20475;-61
2023/07/06 04:18:51;;;;;;;5.50;5.10;;;;;;;;;;5032468;28;20406;-61
2023/07/06 04:21:18;;;;;;;11.70;5.63;;;;;;;;;;5032287;28;20475;-61
2023/07/06 04:23:49;;;;;;;5.60;5.20;;;;;;;;;;5032233;28;20449;-61
2023/07/06 04:26:19;;;;;;;5.60;5.30;;;;;;;;;;5032235;28;20414;-61
2023/07/06 04:28:45;;;;;;;6.60;4.93;;;;;;;;;;5032378;28;20436;-61
2023/07/06 04:31:11;;;;;;;10.23;9.33;;;;;;;;;;5032198;28;20466;-61
2023/07/06 04:33:39;;;;;;;6.97;6.37;;;;;;;;;;5031990;28;20786;-61
2023/07/06 04:36:09;;;;;;;5.77;5.17;;;;;;;;;;5032028;28;20442;-61
2023/07/06 04:38:35;;;;;;;8.20;5.40;;;;;;;;;;5030258;28;20433;-61
2023/07/06 04:41:02;;;;;;;5.40;5.00;;;;;;;;;;5031747;28;20437;-61
2023/07/06 04:43:27;;;;;;;5.57;5.20;;;;;;;;;;5031218;28;20403;-61
2023/07/06 04:45:56;;;;;;;5.70;5.30;;;;;;;;;;5031098;28;20492;-61
2023/07/06 04:48:24;;;;;;;6.07;5.57;;;;;;;;;;5031753;28;20432;-61
2023/07/06 04:50:54;;;;;;;5.20;4.93;;;;;;;;;;5031689;28;20433;-61
2023/07/06 04:53:20;;;;;;;5.97;5.43;;;;;;;;;;5031814;28;20410;-61
2023/07/06 04:55:47;;;;;;;7.57;5.53;;;;;;;;;;5032039;28;20423;-61
2023/07/06 04:58:13;;;;;;;10.17;5.40;;;;;;;;;;5031703;28;20415;-61
2023/07/06 05:00:43;;;;;;;8.50;5.37;;;;;;;;;;5031709;28;20434;-61
2023/07/06 05:03:09;;;;;;;5.70;5.13;;;;;;;;;;5031739;28;20429;-61
2023/07/06 05:05:39;;;;;;;6.63;5.97;;;;;;;;;;5030700;28;20422;-61
2023/07/06 05:08:05;;;;;;;5.33;4.93;;;;;;;;;;5031637;28;20811;-61
2023/07/06 05:10:34;;;;;;;7.13;5.83;;;;;;;;;;5031867;28;20793;-61
2023/07/06 05:13:00;;;;;;;5.60;5.10;;;;;;;;;;5031615;28;20531;-61
2023/07/06 05:15:26;;;;;;;6.17;5.50;;;;;;;;;;5031960;28;20802;-61
2023/07/06 05:17:54;;;;;;;5.70;5.30;;;;;;;;;;5035202;28;20430;-61
2023/07/06 05:20:20;;;;;;;6.83;6.23;;;;;;;;;;5035866;28;20458;-61
2023/07/06 05:22:48;;;;;;;7.87;5.83;;;;;;;;;;5035628;28;20454;-61
2023/07/06 05:25:14;;;;;;;6.43;5.83;;;;;;;;;;5035498;28;20425;-61
2023/07/06 05:27:43;;;;;;;5.50;5.10;;;;;;;;;;5034198;28;20887;-61
2023/07/06 05:30:10;;;;;;;5.43;4.97;;;;;;;;;;5035299;28;20408;-61
2023/07/06 05:32:36;;;;;;;5.70;5.20;;;;;;;;;;5035412;28;20461;-61
2023/07/06 05:35:02;;;;;;;7.20;4.50;;;;;;;;;;5035244;28;20434;-61
2023/07/06 05:37:28;;;;;;;5.77;4.37;;;;;;;;;;5035294;28;20418;-61
2023/07/06 05:39:54;;;;;;;5.23;4.83;;;;;;;;;;5035329;28;20797;-60
2023/07/06 05:42:20;;;;;;;4.97;4.57;;;;;;;;;;5035128;28;20414;-60
2023/07/06 05:44:46;;;;;;;7.80;5.10;;;;;;;;;;5035142;28;20434;-60
2023/07/06 05:47:13;;;;;;;5.40;5.10;;;;;;;;;;5035169;28;20930;-60
2023/07/06 05:49:39;;;;;;;8.20;5.30;;;;;;;;;;5035090;28;20417;-60
2023/07/06 05:52:05;;;;;;;9.70;6.10;;;;;;;;;;5033587;28;20465;-60
2023/07/06 05:54:34;;;;;;;8.20;5.63;;;;;;;;;;5035134;28;20914;-60
2023/07/06 05:57:03;;;;;;;18.80;5.60;;;;;;;;;;5034978;28;20448;-60
2023/07/06 05:59:30;;;;;;;9.80;5.30;;;;;;;;;;5033306;28;20418;-60
2023/07/06 06:01:59;;;;;;;8.77;6.23;;;;;;;;;;5033557;28;20525;-60
2023/07/06 06:04:26;;;;;;;6.50;5.80;;;;;;;;;;5034864;28;20422;-60
2023/07/06 06:06:54;;;;;;;5.70;5.30;;;;;;;;;;5034316;28;20411;-60
2023/07/06 06:09:20;;;;;;;24.63;17.67;;;;;;;;;;5034458;28;20474;-60
2023/07/06 06:11:48;;;;;;;6.50;6.00;;;;;;;;;;5034820;28;20462;-60
2023/07/06 06:14:14;;;;;;;16.77;11.60;;;;;;;;;;5034544;28;20449;-60
2023/07/06 06:16:40;;;;;;;53.97;24.83;;;;;;;;;;5034561;28;20434;-60
2023/07/06 06:19:07;;;;;;;56.23;29.70;;;;;;;;;;5034500;28;20416;-60
2023/07/06 06:21:33;;;;;;;14.50;8.97;;;;;;;;;;5034479;28;20416;-60
2023/07/06 06:23:59;;;;;;;5.90;5.40;;;;;;;;;;5034454;28;20439;-60
2023/07/06 06:26:26;;;;;;;59.80;35.80;;;;;;;;;;5034239;28;20503;-60
2023/07/06 06:28:55;;;;;;;27.43;18.60;;;;;;;;;;5033491;28;20934;-60
2023/07/06 06:31:21;;;;;;;28.67;16.10;;;;;;;;;;5034408;28;20460;-60
2023/07/06 06:33:47;;;;;;;5.63;5.13;;;;;;;;;;5034129;28;20474;-60
2023/07/06 06:36:13;;;;;;;5.70;5.27;;;;;;;;;;5034505;28;20525;-60
2023/07/06 06:38:39;;;;;;;5.33;5.00;;;;;;;;;;5034131;28;20427;-60
2023/07/06 06:41:07;;;;;;;5.83;5.17;;;;;;;;;;5033955;28;20902;-60
2023/07/06 06:43:36;;;;;;;7.43;4.97;;;;;;;;;;5033843;28;20416;-60
2023/07/06 06:46:03;;;;;;;12.13;5.70;;;;;;;;;;5034124;28;20464;-60
2023/07/06 06:48:29;;;;;;;7.13;4.80;;;;;;;;;;5033921;28;20884;-60
2023/07/06 06:50:56;;;;;;;5.53;5.23;;;;;;;;;;5033883;28;20519;-60
2023/07/06 06:53:22;;;;;;;5.50;5.00;;;;;;;;;;5033635;28;20435;-60
2023/07/06 06:55:50;;;;;;;6.90;5.30;;;;;;;;;;5033813;28;20452;-60
2023/07/06 06:58:20;;;;;;;6.17;5.77;;;;;;;;;;5034088;28;20452;-60
2023/07/06 07:00:46;;;;;;;6.63;6.03;;;;;;;;;;5033902;28;20472;-60
2023/07/06 07:03:13;;;;;;;6.00;5.50;;;;;;;;;;5033478;28;20494;-59
2023/07/06 07:05:40;;;;;;;8.20;4.53;;;;;;;;;;5033747;28;20892;-60
2023/07/06 07:08:09;;;;;;;6.43;5.07;;;;;;;;;;5033287;28;20405;-59
2023/07/06 07:10:35;;;;;;;5.13;4.83;;;;;;;;;;5033429;28;20445;-60
2023/07/06 07:13:01;;;;;;;5.03;4.63;;;;;;;;;;5033013;28;20467;-59
2023/07/06 07:15:27;;;;;;;5.13;4.73;;;;;;;;;;5032872;28;20430;-60
2023/07/06 07:17:55;;;;;;;4.40;4.17;;;;;;;;;;5032862;28;20411;-60
2023/07/06 07:20:26;;;;;;;5.90;5.40;;;;;;;;;;5033084;28;20770;-60
2023/07/06 07:22:54;;;;;;;9.50;4.43;;;;;;;;;;5031976;28;20527;-60
2023/07/06 07:25:20;;;;;;;5.47;5.07;;;;;;;;;;5033264;28;20472;-60
2023/07/06 07:27:47;;;;;;;5.73;5.23;;;;;;;;;;5033212;28;20408;-60
2023/07/06 07:30:13;;;;;;;9.13;4.80;;;;;;;;;;5032813;28;20425;-60
2023/07/06 07:32:42;;;;;;;12.83;4.90;;;;;;;;;;5032832;28;20826;-60
2023/07/06 07:35:08;;;;;;;4.60;4.20;;;;;;;;;;5033190;28;20410;-60
2023/07/06 07:37:36;;;;;;;4.87;4.57;;;;;;;;;;5033185;28;20408;-60
2023/07/06 07:40:02;;;;;;;5.60;4.10;;;;;;;;;;5033027;28;20913;-60
2023/07/06 07:42:30;;;;;;;7.50;4.30;;;;;;;;;;5032133;28;20425;-59
2023/07/06 07:44:57;;;;;;;4.97;4.50;;;;;;;;;;5032687;28;20431;-60
2023/07/06 07:47:24;;;;;;;4.00;3.73;;;;;;;;;;5033072;28;20478;-60
2023/07/06 07:49:50;;;;;;;4.53;4.23;;;;;;;;;;5032674;28;20417;-60
2023/07/06 07:52:19;;;;;;;4.07;3.67;;;;;;;;;;5031451;28;20504;-60
2023/07/06 07:54:45;;;;;;;5.47;3.50;;;;;;;;;;5032743;28;20949;-61
2023/07/06 07:57:15;;;;;;;3.83;3.47;;;;;;;;;;5032762;28;20505;-61
2023/07/06 07:59:41;;;;;;;4.53;3.80;;;;;;;;;;5032676;28;20482;-61
2023/07/06 08:02:07;;;;;;;6.03;4.47;;;;;;;;;;5032430;28;20449;-61
2023/07/06 08:04:33;;;;;;;3.40;3.20;;;;;;;;;;5032671;28;20469;-60
2023/07/06 08:07:02;;;;;;;7.60;4.53;;;;;;;;;;5032294;28;20892;-61
2023/07/06 08:09:28;;;;;;;3.77;3.57;;;;;;;;;;5032421;28;20452;-61
2023/07/06 08:11:56;;;;;;;3.80;3.70;;;;;;;;;;5032359;28;20523;-61
2023/07/06 08:14:38;;;;;;;4.17;3.80;;;;;;;;;;5032307;28;20435;-60
2023/07/06 08:17:05;;;;;;;9.70;3.60;;;;;;;;;;5032364;28;20427;-61
2023/07/06 08:19:32;;;;;;;5.43;3.37;;;;;;;;;;5031704;28;20469;-61
2023/07/06 08:22:00;;;;;;;4.33;3.47;;;;;;;;;;5031967;28;20915;-60
2023/07/06 08:24:29;;;;;;;3.80;3.57;;;;;;;;;;5032294;28;20908;-61
2023/07/06 08:26:55;;;;;;;3.37;3.17;;;;;;;;;;5032064;28;20439;-61
2023/07/06 08:29:22;;;;;;;3.00;2.87;;;;;;;;;;5032077;28;20495;-60
2023/07/06 08:31:49;;;;;;;3.30;3.10;;;;;;;;;;5032058;28;20532;-60
2023/07/06 08:34:16;;;;;;;3.40;3.10;;;;;;;;;;5030997;28;20922;-60
2023/07/06 08:36:42;;;;;;;3.00;2.77;;;;;;;;;;5032659;28;20415;-59
2023/07/06 08:39:08;;;;;;;3.23;2.60;;;;;;;;;;5031338;28;20422;-60
2023/07/06 08:41:37;;;;;;;3.17;2.93;;;;;;;;;;5032527;28;20792;-59
2023/07/06 08:44:03;;;;;;;3.53;2.73;;;;;;;;;;5032272;28;20423;-60
2023/07/06 08:46:34;;;;;;;3.27;2.90;;;;;;;;;;5031373;28;20406;-60
2023/07/06 08:49:00;;;;;;;3.57;3.27;;;;;;;;;;5032113;28;20453;-59
2023/07/06 08:51:34;;;;;;;2.80;2.60;;;;;;;;;;5032905;28;20462;-61
2023/07/06 08:54:01;;;;;;;2.60;2.50;;;;;;;;;;5035108;28;20952;-64
2023/07/06 08:56:28;;;;;;;3.43;2.50;;;;;;;;;;5035911;28;20427;-59
2023/07/06 08:58:56;;;;;;;3.43;2.77;;;;;;;;;;5036067;28;20416;-60
2023/07/06 09:01:25;;;;;;;3.30;2.80;;;;;;;;;;5036415;28;20414;-59
2023/07/06 09:03:55;;;;;;;2.40;2.20;;;;;;;;;;5036546;28;20410;-60
2023/07/06 09:06:22;;;;;;;2.90;2.80;;;;;;;;;;5036271;28;20764;-60
2023/07/06 09:08:50;;;;;;;4.20;2.90;;;;;;;;;;5036330;28;20458;-60
2023/07/06 09:11:17;;;;;;;4.93;2.83;;;;;;;;;;5036178;28;20435;-60
2023/07/06 09:13:47;;;;;;;3.23;2.70;;;;;;;;;;5036335;28;20413;-60
2023/07/06 09:16:19;;;;;;;4.63;2.50;;;;;;;;;;5035971;28;20422;-60
2023/07/06 09:18:48;;;;;;;2.97;2.73;;;;;;;;;;5034536;28;20491;-60
2023/07/06 09:21:16;;;;;;;3.07;2.83;;;;;;;;;;5036326;28;20751;-60
2023/07/06 09:23:48;;;;;;;2.57;2.47;;;;;;;;;;5035791;28;20438;-61
2023/07/06 09:26:37;;;;;;;2.97;2.83;;;;;;;;;;5035770;28;20422;-60
2023/07/06 09:29:17;;;;;;;3.50;3.20;;;;;;;;;;5035574;28;20481;-60
2023/07/06 09:31:43;;;;;;;2.53;2.40;;;;;;;;;;5035732;28;20471;-57
2023/07/06 09:34:24;;;;;;;2.40;2.30;;;;;;;;;;5035634;28;20424;-59
2023/07/06 09:36:51;;;;;;;2.90;2.70;;;;;;;;;;5034129;28;20788;-58
2023/07/06 09:39:17;;;;;;;2.50;2.23;;;;;;;;;;5035810;28;20400;-58
2023/07/06 09:41:44;;;;;;;2.20;2.10;;;;;;;;;;5035885;28;20406;-58
2023/07/06 09:44:15;;;;;;;3.30;2.83;;;;;;;;;;5035303;28;20831;-58
2023/07/06 09:46:41;;;;;;;3.03;2.73;;;;;;;;;;5034364;28;20428;-58
2023/07/06 09:49:17;;;;;;;2.47;2.37;;;;;;;;;;5034252;28;20490;-58
2023/07/06 09:51:50;;;;;;;2.33;2.10;;;;;;;;;;5035353;28;20880;-58
2023/07/06 09:54:21;;;;;;;2.77;2.60;;;;;;;;;;5035364;28;20933;-57
2023/07/06 09:56:48;;;;;;;3.27;3.17;;;;;;;;;;5035312;28;20426;-58
2023/07/06 09:59:14;;;;;;;3.10;3.00;;;;;;;;;;5035409;28;20451;-58
2023/07/06 10:02:08;;;;;;;2.80;2.70;;;;;;;;;;5035319;28;20429;-58
2023/07/06 10:04:44;;;;;;;3.10;2.90;;;;;;;;;;5034896;28;20844;-58
2023/07/06 10:07:13;;;;;;;2.63;1.83;;;;;;;;;;5035247;28;20490;-58
2023/07/06 10:09:41;;;;;;;2.60;2.40;;;;;;;;;;5033850;28;21068;-58
2023/07/06 10:12:13;;;;;;;3.40;2.80;;;;;;;;;;5034794;28;20713;-58
2023/07/06 10:14:44;;;;;;;2.13;1.93;;;;;;;;;;5034994;28;21080;-58
2023/07/06 10:17:12;;;;;;;2.30;2.13;;;;;;;;;;5034977;28;20408;-58
2023/07/06 10:19:45;;;;;;;4.40;2.50;;;;;;;;;;5035089;28;20433;-58
2023/07/06 10:22:14;;;;;;;2.23;1.80;;;;;;;;;;5034872;28;20578;-58
2023/07/06 10:24:55;;;;;;;2.80;2.67;;;;;;;;;;5034962;28;20981;-58
2023/07/06 10:27:29;;;;;;;2.50;2.30;;;;;;;;;;5034639;28;20418;-58
2023/07/06 10:29:58;;;;;;;2.00;1.90;;;;;;;;;;5035024;28;20430;-58
2023/07/06 10:32:33;;;;;;;2.80;2.70;;;;;;;;;;5035005;28;20498;-58
2023/07/06 10:35:02;;;;;;;2.57;2.47;;;;;;;;;;5034849;28;20415;-58
2023/07/06 10:37:28;;;;;;;2.80;2.60;;;;;;;;;;5034626;28;20424;-58
2023/07/06 10:39:54;;;;;;;2.63;2.53;;;;;;;;;;5034883;28;20415;-58
2023/07/06 10:42:22;;;;;;;3.10;2.73;;;;;;;;;;5034613;28;20427;-58
2023/07/06 10:44:55;;;;;;;2.80;2.70;;;;;;;;;;5034937;28;20783;-58
2023/07/06 10:47:31;;;;;;;2.40;2.30;;;;;;;;;;5034478;28;20423;-58
2023/07/06 10:50:12;;;;;;;3.00;2.90;;;;;;;;;;5034708;28;20466;-59
2023/07/06 10:52:44;;;;;;;3.30;3.00;;;;;;;;;;5035022;28;20453;-58
2023/07/06 10:55:19;;;;;;;3.17;3.07;;;;;;;;;;5034353;28;20491;-58
2023/07/06 10:57:52;;;;;;;3.23;2.77;;;;;;;;;;5034485;28;20534;-59
2023/07/06 11:00:20;;;;;;;5.93;3.60;;;;;;;;;;5033978;28;20460;-63
2023/07/06 11:02:46;;;;;;;6.07;5.60;;;;;;;;;;5034127;28;20923;-63
2023/07/06 11:05:28;;;;;;;3.20;3.00;;;;;;;;;;5033983;28;20824;-63
2023/07/06 11:07:59;;;;;;;17.47;10.63;;;;;;;;;;5034132;28;20420;-63
2023/07/06 11:10:28;;;;;;;18.23;9.90;;;;;;;;;;5034047;28;20440;-63
2023/07/06 11:13:06;;;;;;;2.80;2.70;;;;;;;;;;5034064;28;20462;-63
2023/07/06 11:15:51;;;;;;;5.33;4.93;;;;;;;;;;5033633;28;20855;-63
2023/07/06 11:18:19;;;;;;;3.53;3.43;;;;;;;;;;5033918;28;20759;-63
2023/07/06 11:21:07;;;;;;;2.50;2.40;;;;;;;;;;5033909;28;20426;-63
2023/07/06 11:23:37;;;;;;;3.17;2.70;;;;;;;;;;5034032;28;20420;-63
2023/07/06 11:26:09;;;;;;;2.97;2.77;;;;;;;;;;5033837;28;20902;-64
2023/07/06 11:28:40;;;;;;;7.83;3.07;;;;;;;;;;5033670;28;20484;-63
2023/07/06 11:31:12;;;;;;;5.73;3.03;;;;;;;;;;5034023;28;20844;-63
2023/07/06 11:33:38;;;;;;;3.30;3.00;;;;;;;;;;5033604;28;20498;-63
2023/07/06 11:36:20;;;;;;;3.37;3.27;;;;;;;;;;5033925;28;20845;-63
2023/07/06 11:38:49;;;;;;;5.50;3.47;;;;;;;;;;5033578;28;20897;-63
2023/07/06 11:41:21;;;;;;;3.40;2.50;;;;;;;;;;5033566;28;20430;-63
2023/07/06 11:43:49;;;;;;;3.50;3.30;;;;;;;;;;5033373;28;20435;-63
2023/07/06 11:46:27;;;;;;;3.00;2.80;;;;;;;;;;5033299;28;20429;-63
2023/07/06 11:48:54;;;;;;;2.63;2.43;;;;;;;;;;5033145;28;20457;-63
2023/07/06 11:51:22;;;;;;;2.50;2.40;;;;;;;;;;5033353;28;20529;-63
2023/07/06 11:59:15;;;;;;;2.73;2.53;;;;;;;;;;5033315;28;20992;-63
2023/07/06 12:01:57;;;;;;;2.57;2.47;;;;;;;;;;5037065;23;20517;-62
2023/07/06 12:04:26;;;;;;;2.40;2.40;;;;;;;;;;5032885;28;21156;-62
2023/07/06 12:06:53;;;;;;;2.90;2.80;;;;;;;;;;5032762;28;20898;-63
2023/07/06 12:09:20;;;;;;;2.63;2.53;;;;;;;;;;5032926;28;20442;-63
2023/07/06 12:12:06;;;;;;;2.80;2.70;;;;;;;;;;5032828;28;20448;-63
2023/07/06 12:14:36;;;;;;;3.20;3.00;;;;;;;;;;5032682;28;20443;-63
2023/07/06 12:17:06;;;;;;;2.73;2.57;;;;;;;;;;5032888;28;20416;-63
2023/07/06 12:19:32;;;;;;;5.20;2.50;;;;;;;;;;5032808;28;20435;-62
2023/07/06 12:21:59;;;;;;;2.90;2.70;;;;;;;;;;5032635;28;20442;-63
2023/07/06 12:24:27;;;;;;;2.87;2.60;;;;;;;;;;5032434;28;20460;-63
2023/07/06 12:26:56;;;;;;;2.53;2.40;;;;;;;;;;5032184;28;20503;-63
2023/07/06 12:29:27;;;;;;;3.07;2.97;;;;;;;;;;5032908;28;20428;-63
2023/07/06 12:31:56;;;;;;;3.43;2.47;;;;;;;;;;5032732;28;20452;-63
2023/07/06 12:34:29;;;;;;;2.90;2.73;;;;;;;;;;5032555;28;20435;-63
2023/07/06 12:36:55;;;;;;;3.13;2.80;;;;;;;;;;5032513;28;20436;-63
2023/07/06 12:39:23;;;;;;;13.13;3.00;;;;;;;;;;5031609;28;20522;-63
2023/07/06 12:41:54;;;;;;;3.30;3.00;;;;;;;;;;5032441;28;20427;-63
2023/07/06 12:44:22;;;;;;;2.70;2.50;;;;;;;;;;5032531;28;20412;-62
2023/07/06 12:46:52;;;;;;;2.43;2.33;;;;;;;;;;5032915;28;20422;-62
2023/07/06 12:49:23;;;;;;;6.63;2.40;;;;;;;;;;5032586;28;20438;-62
2023/07/06 12:51:54;;;;;;;5.90;2.30;;;;;;;;;;5032622;28;20482;-62
2023/07/06 12:54:24;;;;;;;2.40;2.20;;;;;;;;;;5032329;28;20431;-62
2023/07/06 12:56:59;;;;;;;2.20;2.20;;;;;;;;;;5032365;28;20396;-62
2023/07/06 12:59:25;;;;;;;3.00;2.80;;;;;;;;;;5031132;28;20443;-63
2023/07/06 13:01:52;;;;;;;2.10;2.10;;;;;;;;;;5031027;28;20923;-63
2023/07/06 13:04:18;;;;;;;2.40;2.30;;;;;;;;;;5032673;28;20461;-63
2023/07/06 13:06:48;;;;;;;3.07;2.40;;;;;;;;;;5032224;28;20511;-63
2023/07/06 13:09:19;;;;;;;3.77;2.60;;;;;;;;;;5032277;28;20413;-63
2023/07/06 13:11:46;;;;;;;3.03;2.47;;;;;;;;;;5030744;28;20466;-63
2023/07/06 13:14:17;;;;;;;2.10;2.00;;;;;;;;;;5032136;28;20922;-63
2023/07/06 13:16:43;;;;;;;3.00;2.80;;;;;;;;;;5032271;28;20404;-63
2023/07/06 13:19:10;;;;;;;2.70;2.60;;;;;;;;;;5032500;28;20498;-63
2023/07/06 13:21:37;;;;;;;2.70;2.60;;;;;;;;;;5031992;28;20428;-63
2023/07/06 13:24:06;;;;;;;2.43;2.30;;;;;;;;;;5032170;28;20447;-63
2023/07/06 13:26:35;;;;;;;2.70;2.27;;;;;;;;;;5032108;28;20423;-63
2023/07/06 13:29:02;;;;;;;3.23;2.73;;;;;;;;;;5032084;28;20419;-63
2023/07/06 13:31:28;;;;;;;2.23;2.13;;;;;;;;;;5032083;28;20477;-64
2023/07/06 13:33:55;;;;;;;2.40;2.40;;;;;;;;;;5030842;28;20796;-64
2023/07/06 13:36:22;;;;;;;2.40;2.40;;;;;;;;;;5031112;28;20792;-63
2023/07/06 13:38:50;;;;;;;6.27;2.77;;;;;;;;;;5035552;28;20465;-63
2023/07/06 13:41:19;;;;;;;2.30;2.20;;;;;;;;;;5035743;28;20447;-64
2023/07/06 13:43:46;;;;;;;2.47;2.27;;;;;;;;;;5018033;28;20423;-64
2023/07/06 13:46:12;;;;;;;2.83;2.70;;;;;;;;;;5035633;28;20443;-64
2023/07/06 13:48:41;;;;;;;2.33;2.33;;;;;;;;;;5033958;28;20806;-64
2023/07/06 13:51:09;;;;;;;3.60;2.17;;;;;;;;;;5035444;28;20507;-63
2023/07/06 13:53:36;;;;;;;2.57;2.27;;;;;;;;;;5034034;28;20997;-63
2023/07/06 13:56:03;;;;;;;5.03;2.57;;;;;;;;;;5034115;28;20440;-63
2023/07/06 13:58:30;;;;;;;2.30;2.23;;;;;;;;;;5035463;28;20495;-63
2023/07/06 14:00:57;;;;;;;3.00;2.40;;;;;;;;;;5035308;28;20427;-63
2023/07/06 14:03:24;;;;;;;2.53;2.43;;;;;;;;;;5035403;28;20443;-63
2023/07/06 14:05:51;;;;;;;2.70;2.50;;;;;;;;;;5035548;28;20772;-63
2023/07/06 14:08:19;;;;;;;2.70;2.60;;;;;;;;;;5033927;28;20431;-63
2023/07/06 14:10:45;;;;;;;2.73;2.57;;;;;;;;;;5035514;28;20914;-63
2023/07/06 14:13:15;;;;;;;3.13;3.03;;;;;;;;;;5035323;28;20467;-63
2023/07/06 14:15:41;;;;;;;19.53;2.70;;;;;;;;;;5033779;28;20966;-63
2023/07/06 14:18:08;;;;;;;2.37;2.23;;;;;;;;;;5035124;28;20412;-64
2023/07/06 14:20:38;;;;;;;3.20;2.97;;;;;;;;;;5034952;28;20804;-63
2023/07/06 14:23:07;;;;;;;2.20;2.10;;;;;;;;;;5034981;28;20431;-63
2023/07/06 14:25:34;;;;;;;2.80;2.60;;;;;;;;;;5034950;28;20492;-63
2023/07/06 14:28:03;;;;;;;3.80;2.20;;;;;;;;;;5034917;28;20416;-63
2023/07/06 14:30:30;;;;;;;4.00;2.80;;;;;;;;;;5034779;28;20439;-63
2023/07/06 14:32:56;;;;;;;5.33;4.87;;;;;;;;;;5034780;28;20831;-63
2023/07/06 14:35:23;;;;;;;3.50;2.50;;;;;;;;;;5034714;28;20475;-63
2023/07/06 14:37:50;;;;;;;2.50;2.40;;;;;;;;;;5035088;28;20392;-64
2023/07/06 14:40:18;;;;;;;2.87;2.60;;;;;;;;;;5033934;28;20431;-64
2023/07/06 14:42:48;;;;;;;2.37;2.27;;;;;;;;;;5014873;28;20444;-64
2023/07/06 14:45:15;;;;;;;2.40;2.23;;;;;;;;;;5014735;28;20912;-63
2023/07/06 14:47:41;;;;;;;2.10;2.00;;;;;;;;;;5013642;28;20432;-64
2023/07/06 14:50:10;;;;;;;2.90;2.40;;;;;;;;;;5012613;28;20424;-64
2023/07/06 14:52:37;;;;;;;2.70;2.60;;;;;;;;;;5014567;28;20504;-64
2023/07/06 14:55:06;;;;;;;2.27;2.17;;;;;;;;;;5014709;28;20423;-63